Austin, TX (78716)

7:34 PM CDT on August 27, 2016 (GMT -0500)
Seven Oaks | | Change Station

Elev 0 ft 30.32 °N, 97.86 °W | Updated 3 minutes ago

Clear
Clear
86.9 °F
Feels Like 95 °F
N
0.6
Wind Variable Wind from NE
Gusts 2.5 mph

Today
High -- | Low -- °F
--% Chance of Precip.
Yesterday
High -- | Low -- °F
Precip. -- in
Pressure 29.90 in
Visibility 10.0 miles
Clouds Clear
Heat Index 95 °F
Dew Point 74 °F
Humidity 64%
Rainfall 0.00 in
Snow Depth Not available.
7:05 AM 7:59 PM
Waning Crescent, 20% visible
METAR KATT 272351Z AUTO 11006KT 10SM CLR 31/21 A2993 RMK AO2 SLP123 T03110206 10333 20300 55002
Pressure 29.90 in
Visibility 10.0 miles
Clouds Clear
Heat Index 95 °F
Dew Point 74 °F
Humidity 64%
Rainfall 0.00 in
Snow Depth Not available.
7:05 AM 7:59 PM
Waning Crescent, 20% visible
METAR KATT 272351Z AUTO 11006KT 10SM CLR 31/21 A2993 RMK AO2 SLP123 T03110206 10333 20300 55002

10-Day Weather Forecast

Almanac

Astronomy

Aug. 27, 2016 Rise Set
Actual Time
Civil Twilight
Nautical Twilight
Astronomical Twilight
Moon
Length of Visible Light
Length of Day
Tomorrow will be .
, % of the Moon is Illuminated

Today's Extremes

State Highs State Lows

Community

WunderPhotos

Upload Photos

1,935,475 photos uploaded!

WunderBlog® & News

Nearby

Air Quality

  Air Quality AQ Index Pollutant
Not available.

Snow Depth

Station Depth Elevation

Earthquake Activity

City Distance Mag. Time & Date
Minimum magnitude displayed is 2.5.

Coastal Water Temperatures

Place Temperature

Stations

Nearby Weather Stations

Station Location Temp. Windchill Dew Point Humidity Wind Precip. Elev Updated Type
                   

Watches & Warnings

There are currently no watches in effect.